sensor_id;sensor_type;location;lat;lon;timestamp;P1;durP1;ratioP1;P2;durP2;ratioP2
19038;SDS011;9652;49.014;12.052;2023-05-10T00:00:38;2.50;;;2.30;;
19038;SDS011;9652;49.014;12.052;2023-05-10T00:03:07;2.47;;;2.27;;
19038;SDS011;9652;49.014;12.052;2023-05-10T00:05:34;2.83;;;2.30;;
19038;SDS011;9652;49.014;12.052;2023-05-10T00:08:01;2.60;;;2.40;;
19038;SDS011;9652;49.014;12.052;2023-05-10T00:10:28;3.40;;;2.33;;
19038;SDS011;9652;49.014;12.052;2023-05-10T00:12:55;3.67;;;2.70;;
19038;SDS011;9652;49.014;12.052;2023-05-10T00:15:22;2.80;;;2.50;;
19038;SDS011;9652;49.014;12.052;2023-05-10T00:17:49;2.20;;;2.03;;
19038;SDS011;9652;49.014;12.052;2023-05-10T00:20:18;2.30;;;2.10;;
19038;SDS011;9652;49.014;12.052;2023-05-10T00:22:45;3.77;;;2.60;;
19038;SDS011;9652;49.014;12.052;2023-05-10T00:25:12;2.57;;;2.33;;
19038;SDS011;9652;49.014;12.052;2023-05-10T00:27:39;5.60;;;2.53;;
19038;SDS011;9652;49.014;12.052;2023-05-10T00:30:07;3.40;;;2.73;;
19038;SDS011;9652;49.014;12.052;2023-05-10T00:32:34;3.73;;;2.50;;
19038;SDS011;9652;49.014;12.052;2023-05-10T00:35:02;3.37;;;2.73;;
19038;SDS011;9652;49.014;12.052;2023-05-10T00:37:30;2.83;;;2.07;;
19038;SDS011;9652;49.014;12.052;2023-05-10T00:39:57;2.40;;;2.20;;
19038;SDS011;9652;49.014;12.052;2023-05-10T00:42:25;3.23;;;2.93;;
19038;SDS011;9652;49.014;12.052;2023-05-10T00:44:54;2.40;;;2.20;;
19038;SDS011;9652;49.014;12.052;2023-05-10T00:47:21;2.77;;;2.23;;
19038;SDS011;9652;49.014;12.052;2023-05-10T00:49:49;2.47;;;2.27;;
19038;SDS011;9652;49.014;12.052;2023-05-10T00:52:16;2.53;;;2.13;;
19038;SDS011;9652;49.014;12.052;2023-05-10T00:54:44;2.83;;;2.53;;
19038;SDS011;9652;49.014;12.052;2023-05-10T00:57:12;3.33;;;2.50;;
19038;SDS011;9652;49.014;12.052;2023-05-10T00:59:40;2.20;;;2.00;;
19038;SDS011;9652;49.014;12.052;2023-05-10T01:02:07;4.17;;;3.00;;
19038;SDS011;9652;49.014;12.052;2023-05-10T01:04:35;2.73;;;2.33;;
19038;SDS011;9652;49.014;12.052;2023-05-10T01:07:02;2.93;;;2.50;;
19038;SDS011;9652;49.014;12.052;2023-05-10T01:09:29;2.53;;;2.27;;
19038;SDS011;9652;49.014;12.052;2023-05-10T01:11:59;2.77;;;2.23;;
19038;SDS011;9652;49.014;12.052;2023-05-10T01:14:28;2.70;;;2.47;;
19038;SDS011;9652;49.014;12.052;2023-05-10T01:16:56;2.73;;;2.47;;
19038;SDS011;9652;49.014;12.052;2023-05-10T01:19:23;2.80;;;2.53;;
19038;SDS011;9652;49.014;12.052;2023-05-10T01:21:57;4.10;;;2.80;;
19038;SDS011;9652;49.014;12.052;2023-05-10T01:24:59;3.40;;;2.83;;
19038;SDS011;9652;49.014;12.052;2023-05-10T01:28:02;2.67;;;2.47;;
19038;SDS011;9652;49.014;12.052;2023-05-10T01:31:02;2.40;;;2.20;;
19038;SDS011;9652;49.014;12.052;2023-05-10T01:33:42;2.30;;;2.10;;
19038;SDS011;9652;49.014;12.052;2023-05-10T01:36:19;3.13;;;2.53;;
19038;SDS011;9652;49.014;12.052;2023-05-10T01:38:57;2.70;;;2.47;;
19038;SDS011;9652;49.014;12.052;2023-05-10T01:41:34;2.97;;;2.20;;
19038;SDS011;9652;49.014;12.052;2023-05-10T01:44:15;2.43;;;1.90;;
19038;SDS011;9652;49.014;12.052;2023-05-10T01:47:01;3.17;;;2.20;;
19038;SDS011;9652;49.014;12.052;2023-05-10T01:49:36;2.60;;;2.40;;
19038;SDS011;9652;49.014;12.052;2023-05-10T01:52:12;3.40;;;2.70;;
19038;SDS011;9652;49.014;12.052;2023-05-10T01:54:48;3.87;;;2.50;;
19038;SDS011;9652;49.014;12.052;2023-05-10T01:57:20;3.27;;;2.57;;
19038;SDS011;9652;49.014;12.052;2023-05-10T01:59:53;5.70;;;2.60;;
19038;SDS011;9652;49.014;12.052;2023-05-10T02:02:23;2.80;;;2.60;;
19038;SDS011;9652;49.014;12.052;2023-05-10T02:04:55;2.77;;;2.30;;
19038;SDS011;9652;49.014;12.052;2023-05-10T02:07:26;2.60;;;2.40;;
19038;SDS011;9652;49.014;12.052;2023-05-10T02:09:54;2.50;;;2.30;;
19038;SDS011;9652;49.014;12.052;2023-05-10T02:12:23;3.67;;;2.50;;
19038;SDS011;9652;49.014;12.052;2023-05-10T02:14:53;3.77;;;2.50;;
19038;SDS011;9652;49.014;12.052;2023-05-10T02:17:21;2.77;;;2.43;;
19038;SDS011;9652;49.014;12.052;2023-05-10T02:19:52;2.60;;;2.40;;
19038;SDS011;9652;49.014;12.052;2023-05-10T02:22:22;2.93;;;2.73;;
19038;SDS011;9652;49.014;12.052;2023-05-10T02:24:51;2.90;;;2.60;;
19038;SDS011;9652;49.014;12.052;2023-05-10T02:27:21;3.20;;;2.77;;
19038;SDS011;9652;49.014;12.052;2023-05-10T02:29:50;3.13;;;2.87;;
19038;SDS011;9652;49.014;12.052;2023-05-10T02:32:20;3.00;;;2.67;;
19038;SDS011;9652;49.014;12.052;2023-05-10T02:34:50;4.43;;;2.93;;
19038;SDS011;9652;49.014;12.052;2023-05-10T02:37:20;3.73;;;3.00;;
19038;SDS011;9652;49.014;12.052;2023-05-10T02:39:49;3.37;;;2.90;;
19038;SDS011;9652;49.014;12.052;2023-05-10T02:42:22;3.47;;;3.17;;
19038;SDS011;9652;49.014;12.052;2023-05-10T02:44:54;3.20;;;2.90;;
19038;SDS011;9652;49.014;12.052;2023-05-10T02:47:26;3.47;;;3.17;;
19038;SDS011;9652;49.014;12.052;2023-05-10T02:49:54;3.20;;;2.90;;
19038;SDS011;9652;49.014;12.052;2023-05-10T02:52:25;3.90;;;3.00;;
19038;SDS011;9652;49.014;12.052;2023-05-10T02:55:02;3.83;;;2.93;;
19038;SDS011;9652;49.014;12.052;2023-05-10T02:57:32;3.13;;;2.83;;
19038;SDS011;9652;49.014;12.052;2023-05-10T03:00:02;5.37;;;3.40;;
19038;SDS011;9652;49.014;12.052;2023-05-10T03:02:30;3.53;;;3.23;;
19038;SDS011;9652;49.014;12.052;2023-05-10T03:04:58;3.17;;;2.97;;
19038;SDS011;9652;49.014;12.052;2023-05-10T03:07:27;3.90;;;3.50;;
19038;SDS011;9652;49.014;12.052;2023-05-10T03:09:54;4.97;;;3.97;;
19038;SDS011;9652;49.014;12.052;2023-05-10T03:12:23;4.77;;;3.43;;
19038;SDS011;9652;49.014;12.052;2023-05-10T03:15:07;7.03;;;3.10;;
19038;SDS011;9652;49.014;12.052;2023-05-10T03:17:45;3.80;;;3.40;;
19038;SDS011;9652;49.014;12.052;2023-05-10T03:20:20;4.07;;;3.27;;
19038;SDS011;9652;49.014;12.052;2023-05-10T03:22:55;3.60;;;3.07;;
19038;SDS011;9652;49.014;12.052;2023-05-10T03:25:38;3.73;;;3.33;;
19038;SDS011;9652;49.014;12.052;2023-05-10T03:28:09;4.47;;;3.60;;
19038;SDS011;9652;49.014;12.052;2023-05-10T03:30:38;4.90;;;3.77;;
19038;SDS011;9652;49.014;12.052;2023-05-10T03:33:09;3.83;;;3.47;;
19038;SDS011;9652;49.014;12.052;2023-05-10T03:35:40;4.63;;;3.40;;
19038;SDS011;9652;49.014;12.052;2023-05-10T03:38:11;3.97;;;3.50;;
19038;SDS011;9652;49.014;12.052;2023-05-10T03:40:38;4.70;;;3.37;;
19038;SDS011;9652;49.014;12.052;2023-05-10T03:43:06;3.93;;;3.40;;
19038;SDS011;9652;49.014;12.052;2023-05-10T03:45:33;3.57;;;3.27;;
19038;SDS011;9652;49.014;12.052;2023-05-10T03:48:01;3.90;;;3.47;;
19038;SDS011;9652;49.014;12.052;2023-05-10T03:50:29;4.87;;;4.20;;
19038;SDS011;9652;49.014;12.052;2023-05-10T03:52:56;4.43;;;3.83;;
19038;SDS011;9652;49.014;12.052;2023-05-10T03:55:24;3.77;;;3.47;;
19038;SDS011;9652;49.014;12.052;2023-05-10T03:57:51;5.00;;;4.00;;
19038;SDS011;9652;49.014;12.052;2023-05-10T04:00:20;7.93;;;4.23;;
19038;SDS011;9652;49.014;12.052;2023-05-10T04:02:51;4.43;;;3.97;;
19038;SDS011;9652;49.014;12.052;2023-05-10T04:05:19;4.03;;;3.67;;
19038;SDS011;9652;49.014;12.052;2023-05-10T04:07:46;5.43;;;3.73;;
19038;SDS011;9652;49.014;12.052;2023-05-10T04:10:15;4.07;;;3.67;;
19038;SDS011;9652;49.014;12.052;2023-05-10T04:12:44;4.77;;;3.70;;
19038;SDS011;9652;49.014;12.052;2023-05-10T04:15:11;6.07;;;4.33;;
19038;SDS011;9652;49.014;12.052;2023-05-10T04:17:38;4.07;;;3.60;;
19038;SDS011;9652;49.014;12.052;2023-05-10T04:20:05;4.43;;;3.60;;
19038;SDS011;9652;49.014;12.052;2023-05-10T04:22:33;5.90;;;4.10;;
19038;SDS011;9652;49.014;12.052;2023-05-10T04:25:00;5.10;;;4.10;;
19038;SDS011;9652;49.014;12.052;2023-05-10T04:27:27;8.83;;;3.90;;
19038;SDS011;9652;49.014;12.052;2023-05-10T04:29:56;4.77;;;3.63;;
19038;SDS011;9652;49.014;12.052;2023-05-10T04:32:23;6.57;;;4.07;;
19038;SDS011;9652;49.014;12.052;2023-05-10T04:34:50;6.87;;;3.80;;
19038;SDS011;9652;49.014;12.052;2023-05-10T04:37:18;6.57;;;4.30;;
19038;SDS011;9652;49.014;12.052;2023-05-10T04:39:46;5.00;;;4.07;;
19038;SDS011;9652;49.014;12.052;2023-05-10T04:42:13;4.97;;;4.37;;
19038;SDS011;9652;49.014;12.052;2023-05-10T04:44:40;3.83;;;3.40;;
19038;SDS011;9652;49.014;12.052;2023-05-10T04:47:09;5.70;;;3.73;;
19038;SDS011;9652;49.014;12.052;2023-05-10T04:49:37;4.77;;;3.80;;
19038;SDS011;9652;49.014;12.052;2023-05-10T04:52:04;4.23;;;3.80;;
19038;SDS011;9652;49.014;12.052;2023-05-10T04:54:31;4.60;;;3.33;;
19038;SDS011;9652;49.014;12.052;2023-05-10T04:56:58;5.60;;;4.10;;
19038;SDS011;9652;49.014;12.052;2023-05-10T04:59:25;6.37;;;4.43;;
19038;SDS011;9652;49.014;12.052;2023-05-10T05:01:52;7.07;;;4.50;;
19038;SDS011;9652;49.014;12.052;2023-05-10T05:04:21;6.00;;;3.67;;
19038;SDS011;9652;49.014;12.052;2023-05-10T05:06:49;4.97;;;4.27;;
19038;SDS011;9652;49.014;12.052;2023-05-10T05:09:16;5.43;;;4.07;;
19038;SDS011;9652;49.014;12.052;2023-05-10T05:11:43;5.37;;;4.33;;
19038;SDS011;9652;49.014;12.052;2023-05-10T05:14:10;4.40;;;4.00;;
19038;SDS011;9652;49.014;12.052;2023-05-10T05:16:37;7.30;;;4.50;;
19038;SDS011;9652;49.014;12.052;2023-05-10T05:19:04;6.67;;;4.47;;
19038;SDS011;9652;49.014;12.052;2023-05-10T05:21:32;6.37;;;4.37;;
19038;SDS011;9652;49.014;12.052;2023-05-10T05:23:59;6.03;;;4.83;;
19038;SDS011;9652;49.014;12.052;2023-05-10T05:26:26;4.30;;;3.83;;
19038;SDS011;9652;49.014;12.052;2023-05-10T05:28:54;5.20;;;3.90;;
19038;SDS011;9652;49.014;12.052;2023-05-10T05:31:21;5.40;;;4.43;;
19038;SDS011;9652;49.014;12.052;2023-05-10T05:33:48;5.53;;;4.33;;
19038;SDS011;9652;49.014;12.052;2023-05-10T05:36:15;4.50;;;3.83;;
19038;SDS011;9652;49.014;12.052;2023-05-10T05:38:43;6.23;;;4.57;;
19038;SDS011;9652;49.014;12.052;2023-05-10T05:41:10;6.07;;;4.37;;
19038;SDS011;9652;49.014;12.052;2023-05-10T05:43:37;5.87;;;4.20;;
19038;SDS011;9652;49.014;12.052;2023-05-10T05:46:04;5.07;;;3.80;;
19038;SDS011;9652;49.014;12.052;2023-05-10T05:48:31;5.27;;;4.63;;
19038;SDS011;9652;49.014;12.052;2023-05-10T05:50:58;5.00;;;4.13;;
19038;SDS011;9652;49.014;12.052;2023-05-10T05:53:26;5.40;;;4.70;;
19038;SDS011;9652;49.014;12.052;2023-05-10T05:55:55;5.17;;;4.53;;
19038;SDS011;9652;49.014;12.052;2023-05-10T05:58:23;4.50;;;4.10;;
19038;SDS011;9652;49.014;12.052;2023-05-10T06:00:51;8.03;;;4.53;;
19038;SDS011;9652;49.014;12.052;2023-05-10T06:03:18;6.07;;;4.20;;
19038;SDS011;9652;49.014;12.052;2023-05-10T06:05:46;5.40;;;4.13;;
19038;SDS011;9652;49.014;12.052;2023-05-10T06:08:13;6.33;;;4.33;;
19038;SDS011;9652;49.014;12.052;2023-05-10T06:10:40;6.87;;;4.60;;
19038;SDS011;9652;49.014;12.052;2023-05-10T06:13:09;5.00;;;4.20;;
19038;SDS011;9652;49.014;12.052;2023-05-10T06:15:36;4.17;;;3.63;;
19038;SDS011;9652;49.014;12.052;2023-05-10T06:18:03;4.57;;;3.90;;
19038;SDS011;9652;49.014;12.052;2023-05-10T06:20:30;4.70;;;4.03;;
19038;SDS011;9652;49.014;12.052;2023-05-10T06:22:57;6.37;;;4.30;;
19038;SDS011;9652;49.014;12.052;2023-05-10T06:25:24;5.37;;;4.40;;
19038;SDS011;9652;49.014;12.052;2023-05-10T06:27:52;4.77;;;3.97;;
19038;SDS011;9652;49.014;12.052;2023-05-10T06:30:24;5.37;;;4.10;;
19038;SDS011;9652;49.014;12.052;2023-05-10T06:32:53;5.30;;;3.90;;
19038;SDS011;9652;49.014;12.052;2023-05-10T06:35:21;4.93;;;4.43;;
19038;SDS011;9652;49.014;12.052;2023-05-10T06:37:49;6.03;;;4.37;;
19038;SDS011;9652;49.014;12.052;2023-05-10T06:40:17;5.20;;;4.30;;
19038;SDS011;9652;49.014;12.052;2023-05-10T06:42:44;5.80;;;4.57;;
19038;SDS011;9652;49.014;12.052;2023-05-10T06:45:12;5.53;;;4.20;;
19038;SDS011;9652;49.014;12.052;2023-05-10T06:47:41;6.77;;;4.23;;
19038;SDS011;9652;49.014;12.052;2023-05-10T06:50:09;10.10;;;4.87;;
19038;SDS011;9652;49.014;12.052;2023-05-10T06:52:37;5.83;;;4.40;;
19038;SDS011;9652;49.014;12.052;2023-05-10T06:55:04;8.07;;;4.63;;
19038;SDS011;9652;49.014;12.052;2023-05-10T06:57:33;7.10;;;4.73;;
19038;SDS011;9652;49.014;12.052;2023-05-10T07:00:00;7.30;;;4.77;;
19038;SDS011;9652;49.014;12.052;2023-05-10T07:02:30;6.60;;;4.63;;
19038;SDS011;9652;49.014;12.052;2023-05-10T07:04:58;5.00;;;4.43;;
19038;SDS011;9652;49.014;12.052;2023-05-10T07:07:25;5.50;;;4.57;;
19038;SDS011;9652;49.014;12.052;2023-05-10T07:09:52;5.37;;;4.57;;
19038;SDS011;9652;49.014;12.052;2023-05-10T07:12:19;8.43;;;5.07;;
19038;SDS011;9652;49.014;12.052;2023-05-10T07:14:46;5.50;;;4.47;;
19038;SDS011;9652;49.014;12.052;2023-05-10T07:17:13;4.90;;;4.23;;
19038;SDS011;9652;49.014;12.052;2023-05-10T07:19:40;4.83;;;4.40;;
19038;SDS011;9652;49.014;12.052;2023-05-10T07:22:09;7.83;;;4.53;;
19038;SDS011;9652;49.014;12.052;2023-05-10T07:24:36;4.30;;;3.90;;
19038;SDS011;9652;49.014;12.052;2023-05-10T07:27:03;6.73;;;4.63;;
19038;SDS011;9652;49.014;12.052;2023-05-10T07:29:30;6.33;;;4.53;;
19038;SDS011;9652;49.014;12.052;2023-05-10T07:31:58;5.77;;;4.40;;
19038;SDS011;9652;49.014;12.052;2023-05-10T07:34:25;6.10;;;3.87;;
19038;SDS011;9652;49.014;12.052;2023-05-10T07:36:52;5.07;;;4.57;;
19038;SDS011;9652;49.014;12.052;2023-05-10T07:39:21;4.80;;;3.90;;
19038;SDS011;9652;49.014;12.052;2023-05-10T07:41:48;4.37;;;3.70;;
19038;SDS011;9652;49.014;12.052;2023-05-10T07:44:15;4.23;;;3.47;;
19038;SDS011;9652;49.014;12.052;2023-05-10T07:46:43;4.90;;;3.60;;
19038;SDS011;9652;49.014;12.052;2023-05-10T07:49:10;4.03;;;3.17;;
19038;SDS011;9652;49.014;12.052;2023-05-10T07:51:37;4.10;;;3.50;;
19038;SDS011;9652;49.014;12.052;2023-05-10T07:54:04;3.97;;;3.57;;
19038;SDS011;9652;49.014;12.052;2023-05-10T07:56:33;2.90;;;2.67;;
19038;SDS011;9652;49.014;12.052;2023-05-10T07:59:00;4.83;;;2.67;;
19038;SDS011;9652;49.014;12.052;2023-05-10T08:01:30;2.63;;;2.20;;
19038;SDS011;9652;49.014;12.052;2023-05-10T08:03:58;2.60;;;2.40;;
19038;SDS011;9652;49.014;12.052;2023-05-10T08:06:26;2.73;;;2.30;;
19038;SDS011;9652;49.014;12.052;2023-05-10T08:08:55;2.23;;;2.03;;
19038;SDS011;9652;49.014;12.052;2023-05-10T08:11:22;1.67;;;1.57;;
19038;SDS011;9652;49.014;12.052;2023-05-10T08:13:51;3.17;;;1.90;;
19038;SDS011;9652;49.014;12.052;2023-05-10T08:16:19;2.83;;;2.53;;
19038;SDS011;9652;49.014;12.052;2023-05-10T08:18:46;2.43;;;1.50;;
19038;SDS011;9652;49.014;12.052;2023-05-10T08:21:15;2.47;;;1.73;;
19038;SDS011;9652;49.014;12.052;2023-05-10T08:23:43;1.80;;;1.70;;
19038;SDS011;9652;49.014;12.052;2023-05-10T08:26:10;1.50;;;1.40;;
19038;SDS011;9652;49.014;12.052;2023-05-10T08:28:37;1.93;;;1.43;;
19038;SDS011;9652;49.014;12.052;2023-05-10T08:31:06;1.10;;;1.00;;
19038;SDS011;9652;49.014;12.052;2023-05-10T08:33:33;1.50;;;1.40;;
19038;SDS011;9652;49.014;12.052;2023-05-10T08:36:00;1.43;;;1.33;;
19038;SDS011;9652;49.014;12.052;2023-05-10T08:38:27;1.30;;;1.20;;
19038;SDS011;9652;49.014;12.052;2023-05-10T08:40:55;1.23;;;1.00;;
19038;SDS011;9652;49.014;12.052;2023-05-10T08:43:25;1.83;;;0.77;;
19038;SDS011;9652;49.014;12.052;2023-05-10T08:45:55;0.90;;;0.73;;
19038;SDS011;9652;49.014;12.052;2023-05-10T08:48:24;2.13;;;0.63;;
19038;SDS011;9652;49.014;12.052;2023-05-10T08:50:52;0.87;;;0.87;;
19038;SDS011;9652;49.014;12.052;2023-05-10T08:53:20;0.83;;;0.70;;
19038;SDS011;9652;49.014;12.052;2023-05-10T08:55:51;0.70;;;0.70;;
19038;SDS011;9652;49.014;12.052;2023-05-10T08:58:19;1.10;;;1.00;;
19038;SDS011;9652;49.014;12.052;2023-05-10T09:00:48;0.80;;;0.80;;
19038;SDS011;9652;49.014;12.052;2023-05-10T09:03:16;0.60;;;0.60;;
19038;SDS011;9652;49.014;12.052;2023-05-10T09:05:46;0.60;;;0.60;;
19038;SDS011;9652;49.014;12.052;2023-05-10T09:08:13;0.70;;;0.70;;
19038;SDS011;9652;49.014;12.052;2023-05-10T09:10:42;0.97;;;0.80;;
19038;SDS011;9652;49.014;12.052;2023-05-10T09:13:12;0.60;;;0.60;;
19038;SDS011;9652;49.014;12.052;2023-05-10T09:15:41;0.73;;;0.70;;
19038;SDS011;9652;49.014;12.052;2023-05-10T09:18:10;1.60;;;0.67;;
19038;SDS011;9652;49.014;12.052;2023-05-10T09:20:37;0.40;;;0.40;;
19038;SDS011;9652;49.014;12.052;2023-05-10T09:23:05;1.77;;;0.70;;
19038;SDS011;9652;49.014;12.052;2023-05-10T09:25:33;0.60;;;0.60;;
19038;SDS011;9652;49.014;12.052;2023-05-10T09:28:02;0.97;;;0.70;;
19038;SDS011;9652;49.014;12.052;2023-05-10T09:30:33;1.70;;;0.50;;
19038;SDS011;9652;49.014;12.052;2023-05-10T09:33:01;2.63;;;0.67;;
19038;SDS011;9652;49.014;12.052;2023-05-10T09:35:29;0.67;;;0.40;;
19038;SDS011;9652;49.014;12.052;2023-05-10T09:37:59;0.60;;;0.60;;
19038;SDS011;9652;49.014;12.052;2023-05-10T09:40:31;0.40;;;0.40;;
19038;SDS011;9652;49.014;12.052;2023-05-10T09:42:59;0.40;;;0.40;;
19038;SDS011;9652;49.014;12.052;2023-05-10T09:45:31;0.50;;;0.50;;
19038;SDS011;9652;49.014;12.052;2023-05-10T09:48:00;0.40;;;0.30;;
19038;SDS011;9652;49.014;12.052;2023-05-10T09:50:28;0.60;;;0.60;;
19038;SDS011;9652;49.014;12.052;2023-05-10T09:52:57;0.30;;;0.30;;
19038;SDS011;9652;49.014;12.052;2023-05-10T09:55:26;0.50;;;0.50;;
19038;SDS011;9652;49.014;12.052;2023-05-10T09:58:09;0.40;;;0.40;;
19038;SDS011;9652;49.014;12.052;2023-05-10T10:00:37;0.50;;;0.50;;
19038;SDS011;9652;49.014;12.052;2023-05-10T10:03:12;0.40;;;0.40;;
19038;SDS011;9652;49.014;12.052;2023-05-10T10:05:42;0.40;;;0.40;;
19038;SDS011;9652;49.014;12.052;2023-05-10T10:08:11;0.63;;;0.40;;
19038;SDS011;9652;49.014;12.052;2023-05-10T10:10:41;0.40;;;0.40;;
19038;SDS011;9652;49.014;12.052;2023-05-10T10:13:10;0.50;;;0.30;;
19038;SDS011;9652;49.014;12.052;2023-05-10T10:15:37;0.30;;;0.30;;
19038;SDS011;9652;49.014;12.052;2023-05-10T10:18:05;1.70;;;0.40;;
19038;SDS011;9652;49.014;12.052;2023-05-10T10:20:32;0.33;;;0.30;;
19038;SDS011;9652;49.014;12.052;2023-05-10T10:22:59;0.37;;;0.37;;
19038;SDS011;9652;49.014;12.052;2023-05-10T10:25:26;0.60;;;0.60;;
19038;SDS011;9652;49.014;12.052;2023-05-10T10:27:59;0.30;;;0.30;;
19038;SDS011;9652;49.014;12.052;2023-05-10T10:30:42;0.60;;;0.60;;
19038;SDS011;9652;49.014;12.052;2023-05-10T10:33:22;0.60;;;0.40;;
19038;SDS011;9652;49.014;12.052;2023-05-10T10:36:06;1.80;;;0.70;;
19038;SDS011;9652;49.014;12.052;2023-05-10T10:38:37;1.30;;;0.50;;
19038;SDS011;9652;49.014;12.052;2023-05-10T10:41:28;0.93;;;0.40;;
19038;SDS011;9652;49.014;12.052;2023-05-10T10:44:23;1.73;;;0.43;;
19038;SDS011;9652;49.014;12.052;2023-05-10T10:47:05;0.57;;;0.53;;
19038;SDS011;9652;49.014;12.052;2023-05-10T10:49:50;0.60;;;0.50;;
19038;SDS011;9652;49.014;12.052;2023-05-10T10:52:30;0.43;;;0.40;;
19038;SDS011;9652;49.014;12.052;2023-05-10T10:55:00;0.87;;;0.50;;
19038;SDS011;9652;49.014;12.052;2023-05-10T10:57:42;1.13;;;0.50;;
19038;SDS011;9652;49.014;12.052;2023-05-10T11:00:20;0.43;;;0.40;;
19038;SDS011;9652;49.014;12.052;2023-05-10T11:02:54;0.63;;;0.47;;
19038;SDS011;9652;49.014;12.052;2023-05-10T11:05:25;0.30;;;0.30;;
19038;SDS011;9652;49.014;12.052;2023-05-10T11:08:15;0.40;;;0.40;;
19038;SDS011;9652;49.014;12.052;2023-05-10T11:10:51;0.50;;;0.50;;
19038;SDS011;9652;49.014;12.052;2023-05-10T11:13:33;1.10;;;0.43;;
19038;SDS011;9652;49.014;12.052;2023-05-10T11:16:13;0.40;;;0.37;;
19038;SDS011;9652;49.014;12.052;2023-05-10T11:18:52;0.60;;;0.47;;
19038;SDS011;9652;49.014;12.052;2023-05-10T11:21:26;0.70;;;0.30;;
19038;SDS011;9652;49.014;12.052;2023-05-10T11:23:54;0.97;;;0.30;;
19038;SDS011;9652;49.014;12.052;2023-05-10T11:26:23;0.40;;;0.40;;
19038;SDS011;9652;49.014;12.052;2023-05-10T11:28:51;0.33;;;0.30;;
19038;SDS011;9652;49.014;12.052;2023-05-10T11:31:22;0.87;;;0.70;;
19038;SDS011;9652;49.014;12.052;2023-05-10T11:33:52;0.60;;;0.50;;
19038;SDS011;9652;49.014;12.052;2023-05-10T11:36:23;1.00;;;0.90;;
19038;SDS011;9652;49.014;12.052;2023-05-10T11:38:54;0.67;;;0.50;;
19038;SDS011;9652;49.014;12.052;2023-05-10T11:41:23;0.77;;;0.40;;
19038;SDS011;9652;49.014;12.052;2023-05-10T11:43:51;0.70;;;0.50;;
19038;SDS011;9652;49.014;12.052;2023-05-10T11:46:21;0.77;;;0.40;;
19038;SDS011;9652;49.014;12.052;2023-05-10T11:48:53;0.30;;;0.30;;
19038;SDS011;9652;49.014;12.052;2023-05-10T11:51:25;0.57;;;0.40;;
19038;SDS011;9652;49.014;12.052;2023-05-10T11:53:53;0.20;;;0.20;;
19038;SDS011;9652;49.014;12.052;2023-05-10T11:56:22;0.37;;;0.30;;
19038;SDS011;9652;49.014;12.052;2023-05-10T11:58:54;0.20;;;0.20;;
19038;SDS011;9652;49.014;12.052;2023-05-10T12:01:26;0.10;;;0.10;;
19038;SDS011;9652;49.014;12.052;2023-05-10T12:03:54;0.20;;;0.20;;
19038;SDS011;9652;49.014;12.052;2023-05-10T12:06:26;0.43;;;0.30;;
19038;SDS011;9652;49.014;12.052;2023-05-10T12:08:57;0.40;;;0.30;;
19038;SDS011;9652;49.014;12.052;2023-05-10T12:11:25;0.37;;;0.37;;
19038;SDS011;9652;49.014;12.052;2023-05-10T12:13:54;0.20;;;0.20;;
19038;SDS011;9652;49.014;12.052;2023-05-10T12:16:22;0.23;;;0.23;;
19038;SDS011;9652;49.014;12.052;2023-05-10T12:18:55;0.20;;;0.20;;
19038;SDS011;9652;49.014;12.052;2023-05-10T12:21:24;0.23;;;0.20;;
19038;SDS011;9652;49.014;12.052;2023-05-10T12:23:52;1.00;;;0.40;;
19038;SDS011;9652;49.014;12.052;2023-05-10T12:26:25;0.30;;;0.20;;
19038;SDS011;9652;49.014;12.052;2023-05-10T12:28:54;2.00;;;0.20;;
19038;SDS011;9652;49.014;12.052;2023-05-10T12:31:49;1.33;;;0.30;;
19038;SDS011;9652;49.014;12.052;2023-05-10T12:34:25;0.70;;;0.47;;
19038;SDS011;9652;49.014;12.052;2023-05-10T12:36:53;0.33;;;0.33;;
19038;SDS011;9652;49.014;12.052;2023-05-10T12:39:21;0.60;;;0.40;;
19038;SDS011;9652;49.014;12.052;2023-05-10T12:41:48;1.77;;;0.37;;
19038;SDS011;9652;49.014;12.052;2023-05-10T12:44:15;0.43;;;0.30;;
19038;SDS011;9652;49.014;12.052;2023-05-10T12:46:42;0.73;;;0.50;;
19038;SDS011;9652;49.014;12.052;2023-05-10T12:49:11;0.90;;;0.40;;
19038;SDS011;9652;49.014;12.052;2023-05-10T12:51:38;1.03;;;0.50;;
19038;SDS011;9652;49.014;12.052;2023-05-10T12:54:05;1.50;;;0.50;;
19038;SDS011;9652;49.014;12.052;2023-05-10T12:56:32;3.60;;;0.70;;
19038;SDS011;9652;49.014;12.052;2023-05-10T12:58:59;1.07;;;0.90;;
19038;SDS011;9652;49.014;12.052;2023-05-10T13:01:26;3.43;;;1.07;;
19038;SDS011;9652;49.014;12.052;2023-05-10T13:03:53;0.83;;;0.80;;
19038;SDS011;9652;49.014;12.052;2023-05-10T13:06:21;0.90;;;0.87;;
19038;SDS011;9652;49.014;12.052;2023-05-10T13:08:48;0.80;;;0.70;;
19038;SDS011;9652;49.014;12.052;2023-05-10T13:11:16;1.40;;;0.97;;
19038;SDS011;9652;49.014;12.052;2023-05-10T13:13:44;0.80;;;0.80;;
19038;SDS011;9652;49.014;12.052;2023-05-10T13:16:12;0.80;;;0.80;;
19038;SDS011;9652;49.014;12.052;2023-05-10T13:18:39;0.83;;;0.83;;
19038;SDS011;9652;49.014;12.052;2023-05-10T13:21:06;1.30;;;1.10;;
19038;SDS011;9652;49.014;12.052;2023-05-10T13:23:34;0.90;;;0.90;;
19038;SDS011;9652;49.014;12.052;2023-05-10T13:26:01;2.23;;;0.90;;
19038;SDS011;9652;49.014;12.052;2023-05-10T13:28:28;1.00;;;0.97;;
19038;SDS011;9652;49.014;12.052;2023-05-10T13:30:55;1.13;;;1.03;;
19038;SDS011;9652;49.014;12.052;2023-05-10T13:33:22;1.77;;;1.07;;
19038;SDS011;9652;49.014;12.052;2023-05-10T13:35:49;1.00;;;1.00;;
19038;SDS011;9652;49.014;12.052;2023-05-10T13:38:17;1.20;;;1.10;;
19038;SDS011;9652;49.014;12.052;2023-05-10T13:40:45;1.00;;;0.93;;
19038;SDS011;9652;49.014;12.052;2023-05-10T13:43:12;1.80;;;0.93;;
19038;SDS011;9652;49.014;12.052;2023-05-10T13:45:40;1.23;;;1.00;;
19038;SDS011;9652;49.014;12.052;2023-05-10T13:48:07;2.47;;;0.80;;
19038;SDS011;9652;49.014;12.052;2023-05-10T13:50:34;0.90;;;0.90;;
19038;SDS011;9652;49.014;12.052;2023-05-10T13:53:01;1.90;;;1.00;;
19038;SDS011;9652;49.014;12.052;2023-05-10T13:55:28;1.20;;;1.10;;
19038;SDS011;9652;49.014;12.052;2023-05-10T13:57:57;1.23;;;1.00;;
19038;SDS011;9652;49.014;12.052;2023-05-10T14:00:24;1.43;;;0.97;;
19038;SDS011;9652;49.014;12.052;2023-05-10T14:02:51;2.57;;;1.07;;
19038;SDS011;9652;49.014;12.052;2023-05-10T14:05:18;1.03;;;0.93;;
19038;SDS011;9652;49.014;12.052;2023-05-10T14:07:45;1.03;;;1.03;;
19038;SDS011;9652;49.014;12.052;2023-05-10T14:10:12;0.90;;;0.90;;
19038;SDS011;9652;49.014;12.052;2023-05-10T14:12:39;1.90;;;0.87;;
19038;SDS011;9652;49.014;12.052;2023-05-10T14:15:08;0.80;;;0.80;;
19038;SDS011;9652;49.014;12.052;2023-05-10T14:17:36;2.10;;;0.90;;
19038;SDS011;9652;49.014;12.052;2023-05-10T14:20:04;1.00;;;0.90;;
19038;SDS011;9652;49.014;12.052;2023-05-10T14:22:32;1.10;;;1.00;;
19038;SDS011;9652;49.014;12.052;2023-05-10T14:24:59;1.20;;;1.10;;
19038;SDS011;9652;49.014;12.052;2023-05-10T14:27:27;1.33;;;1.00;;
19038;SDS011;9652;49.014;12.052;2023-05-10T14:29:54;1.00;;;0.90;;
19038;SDS011;9652;49.014;12.052;2023-05-10T14:32:22;1.17;;;1.10;;
19038;SDS011;9652;49.014;12.052;2023-05-10T14:34:49;1.40;;;1.30;;
19038;SDS011;9652;49.014;12.052;2023-05-10T14:37:16;1.13;;;1.10;;
19038;SDS011;9652;49.014;12.052;2023-05-10T14:39:43;1.47;;;1.20;;
19038;SDS011;9652;49.014;12.052;2023-05-10T14:42:11;1.40;;;1.30;;
19038;SDS011;9652;49.014;12.052;2023-05-10T14:44:38;2.43;;;1.03;;
19038;SDS011;9652;49.014;12.052;2023-05-10T14:47:05;1.30;;;1.20;;
19038;SDS011;9652;49.014;12.052;2023-05-10T14:49:34;1.77;;;1.20;;
19038;SDS011;9652;49.014;12.052;2023-05-10T14:52:01;3.63;;;1.30;;
19038;SDS011;9652;49.014;12.052;2023-05-10T14:54:28;1.40;;;1.30;;
19038;SDS011;9652;49.014;12.052;2023-05-10T14:56:55;2.93;;;1.10;;
19038;SDS011;9652;49.014;12.052;2023-05-10T14:59:23;1.53;;;1.03;;
19038;SDS011;9652;49.014;12.052;2023-05-10T15:01:50;1.40;;;1.30;;